sensor_id;sensor_type;location;lat;lon;timestamp;temperature;humidity
42141;DHT22;27809;51.864;5.646;2023-06-10T00:01:28;20.50;1.00
42141;DHT22;27809;51.864;5.646;2023-06-10T00:03:55;20.40;1.00
42141;DHT22;27809;51.864;5.646;2023-06-10T00:06:21;20.30;1.00
42141;DHT22;27809;51.864;5.646;2023-06-10T00:08:50;20.30;1.00
42141;DHT22;27809;51.864;5.646;2023-06-10T00:11:15;20.40;1.00
42141;DHT22;27809;51.864;5.646;2023-06-10T00:13:41;20.40;1.00
42141;DHT22;27809;51.864;5.646;2023-06-10T00:16:06;20.40;1.00
42141;DHT22;27809;51.864;5.646;2023-06-10T00:18:32;20.40;1.00
42141;DHT22;27809;51.864;5.646;2023-06-10T00:20:58;20.50;1.00
42141;DHT22;27809;51.864;5.646;2023-06-10T00:23:29;20.50;1.00
42141;DHT22;27809;51.864;5.646;2023-06-10T00:25:57;20.50;1.00
42141;DHT22;27809;51.864;5.646;2023-06-10T00:28:23;20.40;1.00
42141;DHT22;27809;51.864;5.646;2023-06-10T00:30:48;20.30;1.00
42141;DHT22;27809;51.864;5.646;2023-06-10T00:33:14;20.20;1.00
42141;DHT22;27809;51.864;5.646;2023-06-10T00:35:40;20.20;1.00
42141;DHT22;27809;51.864;5.646;2023-06-10T00:38:05;20.20;1.00
42141;DHT22;27809;51.864;5.646;2023-06-10T00:40:33;20.30;1.00
42141;DHT22;27809;51.864;5.646;2023-06-10T00:43:04;20.40;1.00
42141;DHT22;27809;51.864;5.646;2023-06-10T00:45:29;20.40;1.00
42141;DHT22;27809;51.864;5.646;2023-06-10T00:47:55;20.40;1.00
42141;DHT22;27809;51.864;5.646;2023-06-10T00:50:21;20.40;1.00
42141;DHT22;27809;51.864;5.646;2023-06-10T00:52:47;20.40;1.00
42141;DHT22;27809;51.864;5.646;2023-06-10T00:55:15;20.40;1.00
42141;DHT22;27809;51.864;5.646;2023-06-10T00:57:41;20.40;1.00
42141;DHT22;27809;51.864;5.646;2023-06-10T01:00:10;20.30;1.00
42141;DHT22;27809;51.864;5.646;2023-06-10T01:02:36;20.30;1.00
42141;DHT22;27809;51.864;5.646;2023-06-10T01:05:02;20.20;1.00
42141;DHT22;27809;51.864;5.646;2023-06-10T01:07:33;20.20;1.00
42141;DHT22;27809;51.864;5.646;2023-06-10T01:12:41;20.20;1.00
42141;DHT22;27809;51.864;5.646;2023-06-10T01:15:13;20.10;1.00
42141;DHT22;27809;51.864;5.646;2023-06-10T01:17:55;20.10;1.00
42141;DHT22;27809;51.864;5.646;2023-06-10T01:20:23;20.10;1.00
42141;DHT22;27809;51.864;5.646;2023-06-10T01:22:49;20.00;1.00
42141;DHT22;27809;51.864;5.646;2023-06-10T01:25:16;20.00;1.00
42141;DHT22;27809;51.864;5.646;2023-06-10T01:27:44;19.90;1.00
42141;DHT22;27809;51.864;5.646;2023-06-10T01:30:18;19.90;1.00
42141;DHT22;27809;51.864;5.646;2023-06-10T01:32:48;19.90;1.00
42141;DHT22;27809;51.864;5.646;2023-06-10T01:35:15;19.80;1.00
42141;DHT22;27809;51.864;5.646;2023-06-10T01:37:43;19.70;1.00
42141;DHT22;27809;51.864;5.646;2023-06-10T01:40:11;19.70;1.00
42141;DHT22;27809;51.864;5.646;2023-06-10T01:42:37;19.70;1.00
42141;DHT22;27809;51.864;5.646;2023-06-10T01:45:03;19.60;1.00
42141;DHT22;27809;51.864;5.646;2023-06-10T01:47:29;19.60;1.00
42141;DHT22;27809;51.864;5.646;2023-06-10T01:49:55;19.60;1.00
42141;DHT22;27809;51.864;5.646;2023-06-10T01:52:20;19.60;1.00
42141;DHT22;27809;51.864;5.646;2023-06-10T01:54:46;19.60;1.00
42141;DHT22;27809;51.864;5.646;2023-06-10T01:57:11;19.50;1.00
42141;DHT22;27809;51.864;5.646;2023-06-10T01:59:37;19.50;1.00
42141;DHT22;27809;51.864;5.646;2023-06-10T02:02:04;19.50;1.00
42141;DHT22;27809;51.864;5.646;2023-06-10T02:04:29;19.50;1.00
42141;DHT22;27809;51.864;5.646;2023-06-10T02:06:55;19.50;1.00
42141;DHT22;27809;51.864;5.646;2023-06-10T02:09:21;19.40;1.00
42141;DHT22;27809;51.864;5.646;2023-06-10T02:11:48;19.50;1.00
42141;DHT22;27809;51.864;5.646;2023-06-10T02:14:14;19.50;1.00
42141;DHT22;27809;51.864;5.646;2023-06-10T02:16:39;19.40;1.00
42141;DHT22;27809;51.864;5.646;2023-06-10T02:19:05;19.40;1.00
42141;DHT22;27809;51.864;5.646;2023-06-10T02:21:32;19.40;1.00
42141;DHT22;27809;51.864;5.646;2023-06-10T02:23:57;19.40;1.00
42141;DHT22;27809;51.864;5.646;2023-06-10T02:26:23;19.40;1.00
42141;DHT22;27809;51.864;5.646;2023-06-10T02:28:51;19.30;1.00
42141;DHT22;27809;51.864;5.646;2023-06-10T02:31:17;19.20;1.00
42141;DHT22;27809;51.864;5.646;2023-06-10T02:33:43;19.20;1.00
42141;DHT22;27809;51.864;5.646;2023-06-10T02:36:09;19.10;1.00
42141;DHT22;27809;51.864;5.646;2023-06-10T02:38:39;19.10;1.00
42141;DHT22;27809;51.864;5.646;2023-06-10T02:41:05;19.20;1.00
42141;DHT22;27809;51.864;5.646;2023-06-10T02:43:31;19.00;1.00
42141;DHT22;27809;51.864;5.646;2023-06-10T02:45:56;19.00;1.00
42141;DHT22;27809;51.864;5.646;2023-06-10T02:48:24;18.90;1.00
42141;DHT22;27809;51.864;5.646;2023-06-10T02:50:49;18.90;1.00
42141;DHT22;27809;51.864;5.646;2023-06-10T02:53:15;18.80;1.00
42141;DHT22;27809;51.864;5.646;2023-06-10T02:55:40;18.80;1.00
42141;DHT22;27809;51.864;5.646;2023-06-10T02:58:06;18.70;1.00
42141;DHT22;27809;51.864;5.646;2023-06-10T03:00:32;18.70;1.00
42141;DHT22;27809;51.864;5.646;2023-06-10T03:02:58;18.60;1.00
42141;DHT22;27809;51.864;5.646;2023-06-10T03:05:28;18.60;1.00
42141;DHT22;27809;51.864;5.646;2023-06-10T03:07:53;18.60;1.00
42141;DHT22;27809;51.864;5.646;2023-06-10T03:10:19;18.70;1.00
42141;DHT22;27809;51.864;5.646;2023-06-10T03:12:45;18.60;1.00
42141;DHT22;27809;51.864;5.646;2023-06-10T03:15:10;18.70;1.00
42141;DHT22;27809;51.864;5.646;2023-06-10T03:17:36;18.60;1.00
42141;DHT22;27809;51.864;5.646;2023-06-10T03:20:02;18.60;1.00
42141;DHT22;27809;51.864;5.646;2023-06-10T03:22:28;18.60;1.00
42141;DHT22;27809;51.864;5.646;2023-06-10T03:24:54;18.70;1.00
42141;DHT22;27809;51.864;5.646;2023-06-10T03:27:20;18.60;1.00
42141;DHT22;27809;51.864;5.646;2023-06-10T03:29:45;18.60;1.00
42141;DHT22;27809;51.864;5.646;2023-06-10T03:32:11;18.60;1.00
42141;DHT22;27809;51.864;5.646;2023-06-10T03:34:36;18.60;1.00
42141;DHT22;27809;51.864;5.646;2023-06-10T03:37:02;18.50;1.00
42141;DHT22;27809;51.864;5.646;2023-06-10T03:39:28;18.50;1.00
42141;DHT22;27809;51.864;5.646;2023-06-10T03:41:57;18.40;1.00
42141;DHT22;27809;51.864;5.646;2023-06-10T03:44:23;18.50;1.00
42141;DHT22;27809;51.864;5.646;2023-06-10T03:46:49;18.50;1.00
42141;DHT22;27809;51.864;5.646;2023-06-10T03:49:14;18.60;1.00
42141;DHT22;27809;51.864;5.646;2023-06-10T03:51:40;18.50;1.00
42141;DHT22;27809;51.864;5.646;2023-06-10T03:54:06;18.60;1.00
42141;DHT22;27809;51.864;5.646;2023-06-10T03:56:31;18.50;1.00
42141;DHT22;27809;51.864;5.646;2023-06-10T03:58:57;18.50;1.00
42141;DHT22;27809;51.864;5.646;2023-06-10T04:01:22;18.60;1.00
42141;DHT22;27809;51.864;5.646;2023-06-10T04:03:48;18.60;1.00
42141;DHT22;27809;51.864;5.646;2023-06-10T04:06:16;18.60;1.00
42141;DHT22;27809;51.864;5.646;2023-06-10T04:08:42;18.60;1.00
42141;DHT22;27809;51.864;5.646;2023-06-10T04:11:08;18.60;1.00
42141;DHT22;27809;51.864;5.646;2023-06-10T04:13:34;18.60;1.00
42141;DHT22;27809;51.864;5.646;2023-06-10T04:15:59;18.60;1.00
42141;DHT22;27809;51.864;5.646;2023-06-10T04:18:25;18.60;1.00
42141;DHT22;27809;51.864;5.646;2023-06-10T04:20:50;18.60;1.00
42141;DHT22;27809;51.864;5.646;2023-06-10T04:23:16;18.60;1.00
42141;DHT22;27809;51.864;5.646;2023-06-10T04:25:42;18.70;1.00
42141;DHT22;27809;51.864;5.646;2023-06-10T04:28:07;18.60;1.00
42141;DHT22;27809;51.864;5.646;2023-06-10T04:30:33;18.70;1.00
42141;DHT22;27809;51.864;5.646;2023-06-10T04:32:58;18.70;1.00
42141;DHT22;27809;51.864;5.646;2023-06-10T04:35:24;18.70;1.00
42141;DHT22;27809;51.864;5.646;2023-06-10T04:37:51;18.70;1.00
42141;DHT22;27809;51.864;5.646;2023-06-10T04:40:17;18.70;1.00
42141;DHT22;27809;51.864;5.646;2023-06-10T04:42:43;18.70;1.00
42141;DHT22;27809;51.864;5.646;2023-06-10T04:45:08;18.70;1.00
42141;DHT22;27809;51.864;5.646;2023-06-10T04:47:34;18.70;1.00
42141;DHT22;27809;51.864;5.646;2023-06-10T04:50:00;18.80;1.00
42141;DHT22;27809;51.864;5.646;2023-06-10T04:52:26;18.80;1.00
42141;DHT22;27809;51.864;5.646;2023-06-10T04:54:53;18.80;1.00
42141;DHT22;27809;51.864;5.646;2023-06-10T04:57:19;18.80;1.00
42141;DHT22;27809;51.864;5.646;2023-06-10T04:59:45;18.80;1.00
42141;DHT22;27809;51.864;5.646;2023-06-10T05:02:11;18.80;1.00
42141;DHT22;27809;51.864;5.646;2023-06-10T05:04:36;18.90;1.00
42141;DHT22;27809;51.864;5.646;2023-06-10T05:07:02;18.90;1.00
42141;DHT22;27809;51.864;5.646;2023-06-10T05:09:28;18.90;1.00
42141;DHT22;27809;51.864;5.646;2023-06-10T05:11:54;19.00;1.00
42141;DHT22;27809;51.864;5.646;2023-06-10T05:14:19;19.00;1.00
42141;DHT22;27809;51.864;5.646;2023-06-10T05:16:46;19.00;1.00
42141;DHT22;27809;51.864;5.646;2023-06-10T05:19:12;19.00;1.00
42141;DHT22;27809;51.864;5.646;2023-06-10T05:21:37;19.10;1.00
42141;DHT22;27809;51.864;5.646;2023-06-10T05:24:03;19.10;1.00
42141;DHT22;27809;51.864;5.646;2023-06-10T05:26:29;19.20;1.00
42141;DHT22;27809;51.864;5.646;2023-06-10T05:28:57;19.30;1.00
42141;DHT22;27809;51.864;5.646;2023-06-10T05:31:22;19.30;1.00
42141;DHT22;27809;51.864;5.646;2023-06-10T05:33:48;19.30;1.00
42141;DHT22;27809;51.864;5.646;2023-06-10T05:36:13;19.30;1.00
42141;DHT22;27809;51.864;5.646;2023-06-10T05:38:39;19.40;1.00
42141;DHT22;27809;51.864;5.646;2023-06-10T05:41:04;19.40;1.00
42141;DHT22;27809;51.864;5.646;2023-06-10T05:43:30;22.10;1.00
42141;DHT22;27809;51.864;5.646;2023-06-10T05:45:55;23.20;1.00
42141;DHT22;27809;51.864;5.646;2023-06-10T05:48:21;23.40;1.00
42141;DHT22;27809;51.864;5.646;2023-06-10T05:50:46;23.40;1.00
42141;DHT22;27809;51.864;5.646;2023-06-10T05:53:14;23.60;1.00
42141;DHT22;27809;51.864;5.646;2023-06-10T05:55:44;23.30;1.00
42141;DHT22;27809;51.864;5.646;2023-06-10T05:58:10;23.30;1.00
42141;DHT22;27809;51.864;5.646;2023-06-10T06:00:40;23.30;1.00
42141;DHT22;27809;51.864;5.646;2023-06-10T06:03:07;23.30;1.00
42141;DHT22;27809;51.864;5.646;2023-06-10T06:05:36;23.50;1.00
42141;DHT22;27809;51.864;5.646;2023-06-10T06:08:07;23.60;1.00
42141;DHT22;27809;51.864;5.646;2023-06-10T06:10:33;23.80;1.00
42141;DHT22;27809;51.864;5.646;2023-06-10T06:12:59;23.80;1.00
42141;DHT22;27809;51.864;5.646;2023-06-10T06:15:25;23.90;1.00
42141;DHT22;27809;51.864;5.646;2023-06-10T06:17:50;23.90;1.00
42141;DHT22;27809;51.864;5.646;2023-06-10T06:20:20;23.90;1.00
42141;DHT22;27809;51.864;5.646;2023-06-10T06:22:45;23.90;1.00
42141;DHT22;27809;51.864;5.646;2023-06-10T06:25:11;24.00;1.00
42141;DHT22;27809;51.864;5.646;2023-06-10T06:27:37;24.00;1.00
42141;DHT22;27809;51.864;5.646;2023-06-10T06:30:03;24.10;1.00
42141;DHT22;27809;51.864;5.646;2023-06-10T06:32:29;24.10;1.00
42141;DHT22;27809;51.864;5.646;2023-06-10T06:34:54;24.00;1.00
42141;DHT22;27809;51.864;5.646;2023-06-10T06:37:22;24.20;1.00
42141;DHT22;27809;51.864;5.646;2023-06-10T06:39:53;24.20;1.00
42141;DHT22;27809;51.864;5.646;2023-06-10T06:42:20;24.20;1.00
42141;DHT22;27809;51.864;5.646;2023-06-10T06:44:46;24.30;1.00
42141;DHT22;27809;51.864;5.646;2023-06-10T06:47:13;24.20;1.00
42141;DHT22;27809;51.864;5.646;2023-06-10T06:49:38;24.30;1.00
42141;DHT22;27809;51.864;5.646;2023-06-10T06:52:04;24.40;1.00
42141;DHT22;27809;51.864;5.646;2023-06-10T06:54:30;24.40;1.00
42141;DHT22;27809;51.864;5.646;2023-06-10T06:56:57;24.30;1.00
42141;DHT22;27809;51.864;5.646;2023-06-10T06:59:22;24.40;1.00
42141;DHT22;27809;51.864;5.646;2023-06-10T07:01:49;24.60;1.00
42141;DHT22;27809;51.864;5.646;2023-06-10T07:04:15;24.70;1.00
42141;DHT22;27809;51.864;5.646;2023-06-10T07:06:41;24.70;1.00
42141;DHT22;27809;51.864;5.646;2023-06-10T07:09:09;24.60;1.00
42141;DHT22;27809;51.864;5.646;2023-06-10T07:11:35;24.80;1.00
42141;DHT22;27809;51.864;5.646;2023-06-10T07:14:01;24.70;1.00
42141;DHT22;27809;51.864;5.646;2023-06-10T07:16:26;24.50;1.00
42141;DHT22;27809;51.864;5.646;2023-06-10T07:18:52;24.60;1.00
42141;DHT22;27809;51.864;5.646;2023-06-10T07:21:18;24.90;1.00
42141;DHT22;27809;51.864;5.646;2023-06-10T07:23:44;24.20;1.00
42141;DHT22;27809;51.864;5.646;2023-06-10T07:26:10;24.50;1.00
42141;DHT22;27809;51.864;5.646;2023-06-10T07:28:41;24.90;1.00
42141;DHT22;27809;51.864;5.646;2023-06-10T07:31:08;25.10;1.00
42141;DHT22;27809;51.864;5.646;2023-06-10T07:33:34;25.10;1.00
42141;DHT22;27809;51.864;5.646;2023-06-10T07:35:59;25.20;1.00
42141;DHT22;27809;51.864;5.646;2023-06-10T07:38:26;25.20;1.00
42141;DHT22;27809;51.864;5.646;2023-06-10T07:40:51;25.20;1.00
42141;DHT22;27809;51.864;5.646;2023-06-10T07:43:17;25.30;1.00
42141;DHT22;27809;51.864;5.646;2023-06-10T07:45:44;25.30;1.00
42141;DHT22;27809;51.864;5.646;2023-06-10T07:48:09;25.30;1.00
42141;DHT22;27809;51.864;5.646;2023-06-10T07:50:35;25.60;1.00
42141;DHT22;27809;51.864;5.646;2023-06-10T07:53:01;25.70;1.00
42141;DHT22;27809;51.864;5.646;2023-06-10T07:55:27;25.60;1.00
42141;DHT22;27809;51.864;5.646;2023-06-10T07:57:53;25.70;1.00
42141;DHT22;27809;51.864;5.646;2023-06-10T08:00:19;25.80;1.00
42141;DHT22;27809;51.864;5.646;2023-06-10T08:02:45;25.90;1.00
42141;DHT22;27809;51.864;5.646;2023-06-10T08:05:10;25.90;1.00
42141;DHT22;27809;51.864;5.646;2023-06-10T08:07:36;26.00;1.00
42141;DHT22;27809;51.864;5.646;2023-06-10T08:10:02;26.10;1.00
42141;DHT22;27809;51.864;5.646;2023-06-10T08:12:29;26.20;1.00
42141;DHT22;27809;51.864;5.646;2023-06-10T08:14:55;26.10;1.00
42141;DHT22;27809;51.864;5.646;2023-06-10T08:17:21;26.20;1.00
42141;DHT22;27809;51.864;5.646;2023-06-10T08:19:46;26.30;1.00
42141;DHT22;27809;51.864;5.646;2023-06-10T08:22:12;26.20;1.00
42141;DHT22;27809;51.864;5.646;2023-06-10T08:24:38;26.30;1.00
42141;DHT22;27809;51.864;5.646;2023-06-10T08:27:04;26.30;1.00
42141;DHT22;27809;51.864;5.646;2023-06-10T08:29:31;26.40;1.00
42141;DHT22;27809;51.864;5.646;2023-06-10T08:31:57;26.60;1.00
42141;DHT22;27809;51.864;5.646;2023-06-10T08:34:23;26.50;1.00
42141;DHT22;27809;51.864;5.646;2023-06-10T08:36:48;26.50;1.00
42141;DHT22;27809;51.864;5.646;2023-06-10T08:39:18;26.30;1.00
42141;DHT22;27809;51.864;5.646;2023-06-10T08:41:57;26.10;1.00
42141;DHT22;27809;51.864;5.646;2023-06-10T08:44:29;26.40;1.00
42141;DHT22;27809;51.864;5.646;2023-06-10T08:47:00;26.40;1.00
42141;DHT22;27809;51.864;5.646;2023-06-10T08:49:27;26.80;1.00
42141;DHT22;27809;51.864;5.646;2023-06-10T08:51:59;26.90;1.00
42141;DHT22;27809;51.864;5.646;2023-06-10T08:54:32;26.90;1.00
42141;DHT22;27809;51.864;5.646;2023-06-10T08:57:04;26.80;1.00
42141;DHT22;27809;51.864;5.646;2023-06-10T08:59:31;27.00;1.00
42141;DHT22;27809;51.864;5.646;2023-06-10T09:01:57;27.10;1.00
42141;DHT22;27809;51.864;5.646;2023-06-10T09:04:24;27.30;1.00
42141;DHT22;27809;51.864;5.646;2023-06-10T09:06:51;27.50;1.00
42141;DHT22;27809;51.864;5.646;2023-06-10T09:09:17;27.30;1.00
42141;DHT22;27809;51.864;5.646;2023-06-10T09:11:45;27.10;1.00
42141;DHT22;27809;51.864;5.646;2023-06-10T09:14:11;27.20;1.00
42141;DHT22;27809;51.864;5.646;2023-06-10T09:16:38;27.40;1.00
42141;DHT22;27809;51.864;5.646;2023-06-10T09:19:04;27.40;1.00
42141;DHT22;27809;51.864;5.646;2023-06-10T09:21:34;27.90;1.00
42141;DHT22;27809;51.864;5.646;2023-06-10T09:24:01;27.90;1.00
42141;DHT22;27809;51.864;5.646;2023-06-10T09:26:28;28.10;1.00
42141;DHT22;27809;51.864;5.646;2023-06-10T09:29:04;27.70;1.00
42141;DHT22;27809;51.864;5.646;2023-06-10T09:31:39;27.90;1.00
42141;DHT22;27809;51.864;5.646;2023-06-10T09:34:11;28.40;1.00
42141;DHT22;27809;51.864;5.646;2023-06-10T09:36:37;28.40;1.00
42141;DHT22;27809;51.864;5.646;2023-06-10T09:39:03;28.40;1.00
42141;DHT22;27809;51.864;5.646;2023-06-10T09:41:33;28.30;1.00
42141;DHT22;27809;51.864;5.646;2023-06-10T09:44:01;28.30;1.00
42141;DHT22;27809;51.864;5.646;2023-06-10T09:46:31;28.30;1.00
42141;DHT22;27809;51.864;5.646;2023-06-10T09:48:57;28.80;1.00
42141;DHT22;27809;51.864;5.646;2023-06-10T09:51:23;28.80;1.00
42141;DHT22;27809;51.864;5.646;2023-06-10T09:53:51;28.60;1.00
42141;DHT22;27809;51.864;5.646;2023-06-10T09:56:17;28.60;1.00
42141;DHT22;27809;51.864;5.646;2023-06-10T09:58:44;29.00;1.00
42141;DHT22;27809;51.864;5.646;2023-06-10T10:01:13;28.80;1.00
42141;DHT22;27809;51.864;5.646;2023-06-10T10:03:50;28.60;1.00
42141;DHT22;27809;51.864;5.646;2023-06-10T10:06:17;29.20;1.00
42141;DHT22;27809;51.864;5.646;2023-06-10T10:08:45;29.20;1.00
42141;DHT22;27809;51.864;5.646;2023-06-10T10:11:11;29.20;1.00
42141;DHT22;27809;51.864;5.646;2023-06-10T10:13:38;29.30;1.00
42141;DHT22;27809;51.864;5.646;2023-06-10T10:16:11;29.10;1.00
42141;DHT22;27809;51.864;5.646;2023-06-10T10:19:01;28.90;1.00
42141;DHT22;27809;51.864;5.646;2023-06-10T10:21:32;28.70;1.00
42141;DHT22;27809;51.864;5.646;2023-06-10T10:24:05;29.00;1.00
42141;DHT22;27809;51.864;5.646;2023-06-10T10:26:33;29.20;1.00
42141;DHT22;27809;51.864;5.646;2023-06-10T10:29:10;29.20;1.00
42141;DHT22;27809;51.864;5.646;2023-06-10T10:31:37;29.20;1.00
42141;DHT22;27809;51.864;5.646;2023-06-10T10:34:10;29.30;1.00
42141;DHT22;27809;51.864;5.646;2023-06-10T10:36:37;29.00;1.00
42141;DHT22;27809;51.864;5.646;2023-06-10T10:39:04;29.30;1.00
42141;DHT22;27809;51.864;5.646;2023-06-10T10:41:31;29.30;1.00
42141;DHT22;27809;51.864;5.646;2023-06-10T10:43:58;29.20;1.00
42141;DHT22;27809;51.864;5.646;2023-06-10T10:46:24;29.80;1.00
42141;DHT22;27809;51.864;5.646;2023-06-10T10:48:54;29.70;1.00
42141;DHT22;27809;51.864;5.646;2023-06-10T10:51:20;29.80;1.00
42141;DHT22;27809;51.864;5.646;2023-06-10T10:54:12;29.50;1.00
42141;DHT22;27809;51.864;5.646;2023-06-10T10:56:38;29.80;1.00
42141;DHT22;27809;51.864;5.646;2023-06-10T10:59:05;29.80;1.00
42141;DHT22;27809;51.864;5.646;2023-06-10T11:01:42;29.60;1.00
42141;DHT22;27809;51.864;5.646;2023-06-10T11:04:11;30.10;1.00
42141;DHT22;27809;51.864;5.646;2023-06-10T11:06:37;30.00;1.00
42141;DHT22;27809;51.864;5.646;2023-06-10T11:09:26;30.10;1.00
42141;DHT22;27809;51.864;5.646;2023-06-10T11:11:57;30.40;1.00
42141;DHT22;27809;51.864;5.646;2023-06-10T11:14:28;30.20;1.00
42141;DHT22;27809;51.864;5.646;2023-06-10T11:16:57;30.00;1.00
42141;DHT22;27809;51.864;5.646;2023-06-10T11:19:36;30.20;1.00
42141;DHT22;27809;51.864;5.646;2023-06-10T11:22:07;30.10;1.00
42141;DHT22;27809;51.864;5.646;2023-06-10T11:24:33;29.70;1.00
42141;DHT22;27809;51.864;5.646;2023-06-10T11:27:17;29.60;1.00
42141;DHT22;27809;51.864;5.646;2023-06-10T11:32:34;29.10;1.00
42141;DHT22;27809;51.864;5.646;2023-06-10T11:35:03;29.20;1.00
42141;DHT22;27809;51.864;5.646;2023-06-10T11:37:29;29.20;1.00
42141;DHT22;27809;51.864;5.646;2023-06-10T11:39:55;29.50;1.00
42141;DHT22;27809;51.864;5.646;2023-06-10T11:42:21;29.60;1.00
42141;DHT22;27809;51.864;5.646;2023-06-10T11:44:49;29.60;1.00
42141;DHT22;27809;51.864;5.646;2023-06-10T11:47:14;29.40;1.00
42141;DHT22;27809;51.864;5.646;2023-06-10T11:49:40;29.40;1.00
42141;DHT22;27809;51.864;5.646;2023-06-10T11:52:06;29.50;1.00
42141;DHT22;27809;51.864;5.646;2023-06-10T11:54:31;29.70;1.00
42141;DHT22;27809;51.864;5.646;2023-06-10T11:56:58;29.50;1.00
42141;DHT22;27809;51.864;5.646;2023-06-10T11:59:27;29.70;1.00
42141;DHT22;27809;51.864;5.646;2023-06-10T12:01:52;29.90;1.00
42141;DHT22;27809;51.864;5.646;2023-06-10T12:04:18;29.80;1.00
42141;DHT22;27809;51.864;5.646;2023-06-10T12:06:51;29.80;1.00
42141;DHT22;27809;51.864;5.646;2023-06-10T12:09:27;29.90;1.00
42141;DHT22;27809;51.864;5.646;2023-06-10T12:17:19;30.20;1.00
42141;DHT22;27809;51.864;5.646;2023-06-10T12:19:46;30.10;1.00
42141;DHT22;27809;51.864;5.646;2023-06-10T12:22:13;30.00;1.00
42141;DHT22;27809;51.864;5.646;2023-06-10T12:24:58;30.10;1.00
42141;DHT22;27809;51.864;5.646;2023-06-10T12:27:25;30.10;1.00
42141;DHT22;27809;51.864;5.646;2023-06-10T12:29:51;29.80;1.00
42141;DHT22;27809;51.864;5.646;2023-06-10T12:32:20;30.00;1.00
42141;DHT22;27809;51.864;5.646;2023-06-10T12:34:50;30.20;1.00
42141;DHT22;27809;51.864;5.646;2023-06-10T12:37:27;30.50;1.00
42141;DHT22;27809;51.864;5.646;2023-06-10T12:39:52;30.30;1.00
42141;DHT22;27809;51.864;5.646;2023-06-10T12:42:24;30.40;1.00
42141;DHT22;27809;51.864;5.646;2023-06-10T12:44:53;30.40;1.00
42141;DHT22;27809;51.864;5.646;2023-06-10T12:47:19;30.40;1.00
42141;DHT22;27809;51.864;5.646;2023-06-10T12:49:45;30.20;1.00
42141;DHT22;27809;51.864;5.646;2023-06-10T12:52:10;30.20;1.00
42141;DHT22;27809;51.864;5.646;2023-06-10T12:54:36;30.40;1.00
42141;DHT22;27809;51.864;5.646;2023-06-10T12:57:02;30.30;1.00
42141;DHT22;27809;51.864;5.646;2023-06-10T12:59:27;30.40;1.00
42141;DHT22;27809;51.864;5.646;2023-06-10T13:01:54;30.40;1.00
42141;DHT22;27809;51.864;5.646;2023-06-10T13:04:20;30.30;1.00
42141;DHT22;27809;51.864;5.646;2023-06-10T13:06:47;30.20;1.00
42141;DHT22;27809;51.864;5.646;2023-06-10T13:09:13;30.30;1.00
42141;DHT22;27809;51.864;5.646;2023-06-10T13:11:39;30.00;1.00
42141;DHT22;27809;51.864;5.646;2023-06-10T13:14:05;30.10;1.00
42141;DHT22;27809;51.864;5.646;2023-06-10T13:16:31;30.20;1.00
42141;DHT22;27809;51.864;5.646;2023-06-10T13:18:58;30.20;1.00
42141;DHT22;27809;51.864;5.646;2023-06-10T13:21:23;30.30;1.00
42141;DHT22;27809;51.864;5.646;2023-06-10T13:23:49;30.10;1.00
42141;DHT22;27809;51.864;5.646;2023-06-10T13:26:15;30.10;1.00
42141;DHT22;27809;51.864;5.646;2023-06-10T13:28:45;30.00;1.00
42141;DHT22;27809;51.864;5.646;2023-06-10T13:31:11;30.10;1.00
42141;DHT22;27809;51.864;5.646;2023-06-10T13:33:37;30.40;1.00
42141;DHT22;27809;51.864;5.646;2023-06-10T13:36:03;30.60;1.00
42141;DHT22;27809;51.864;5.646;2023-06-10T13:38:28;30.40;1.00
42141;DHT22;27809;51.864;5.646;2023-06-10T13:40:54;30.50;1.00
42141;DHT22;27809;51.864;5.646;2023-06-10T13:43:19;30.80;1.00
42141;DHT22;27809;51.864;5.646;2023-06-10T13:45:45;30.80;1.00
42141;DHT22;27809;51.864;5.646;2023-06-10T13:48:11;30.40;1.00
42141;DHT22;27809;51.864;5.646;2023-06-10T13:50:37;30.30;1.00
42141;DHT22;27809;51.864;5.646;2023-06-10T13:53:03;30.40;1.00
42141;DHT22;27809;51.864;5.646;2023-06-10T13:55:29;30.30;1.00
42141;DHT22;27809;51.864;5.646;2023-06-10T13:57:54;30.10;1.00
42141;DHT22;27809;51.864;5.646;2023-06-10T14:00:20;30.30;1.00
42141;DHT22;27809;51.864;5.646;2023-06-10T14:02:45;30.50;1.00
42141;DHT22;27809;51.864;5.646;2023-06-10T14:05:11;30.80;1.00
42141;DHT22;27809;51.864;5.646;2023-06-10T14:07:37;30.80;1.00
42141;DHT22;27809;51.864;5.646;2023-06-10T14:10:03;30.80;1.00
42141;DHT22;27809;51.864;5.646;2023-06-10T14:12:28;31.00;1.00
42141;DHT22;27809;51.864;5.646;2023-06-10T14:14:54;30.70;1.00
42141;DHT22;27809;51.864;5.646;2023-06-10T14:17:19;30.90;1.00
42141;DHT22;27809;51.864;5.646;2023-06-10T14:19:45;30.80;1.00
42141;DHT22;27809;51.864;5.646;2023-06-10T14:22:11;30.60;1.00
42141;DHT22;27809;51.864;5.646;2023-06-10T14:24:36;30.70;1.00
42141;DHT22;27809;51.864;5.646;2023-06-10T14:27:02;30.70;1.00
42141;DHT22;27809;51.864;5.646;2023-06-10T14:29:28;30.90;1.00
42141;DHT22;27809;51.864;5.646;2023-06-10T14:31:55;31.00;1.00
42141;DHT22;27809;51.864;5.646;2023-06-10T14:34:21;31.00;1.00
42141;DHT22;27809;51.864;5.646;2023-06-10T14:36:48;30.90;1.00
42141;DHT22;27809;51.864;5.646;2023-06-10T14:39:14;31.00;1.00
42141;DHT22;27809;51.864;5.646;2023-06-10T14:41:39;30.90;1.00
42141;DHT22;27809;51.864;5.646;2023-06-10T14:44:05;30.80;1.00
42141;DHT22;27809;51.864;5.646;2023-06-10T14:46:30;31.00;1.00
42141;DHT22;27809;51.864;5.646;2023-06-10T14:48:56;30.90;1.00
42141;DHT22;27809;51.864;5.646;2023-06-10T14:51:21;30.70;1.00
42141;DHT22;27809;51.864;5.646;2023-06-10T14:53:47;30.80;1.00
42141;DHT22;27809;51.864;5.646;2023-06-10T14:56:12;30.70;1.00
42141;DHT22;27809;51.864;5.646;2023-06-10T14:58:38;31.20;1.00
42141;DHT22;27809;51.864;5.646;2023-06-10T15:01:03;30.70;1.00
42141;DHT22;27809;51.864;5.646;2023-06-10T15:03:29;30.70;1.00
42141;DHT22;27809;51.864;5.646;2023-06-10T15:05:55;30.90;1.00
42141;DHT22;27809;51.864;5.646;2023-06-10T15:08:20;30.90;1.00
42141;DHT22;27809;51.864;5.646;2023-06-10T15:10:46;31.10;1.00
42141;DHT22;27809;51.864;5.646;2023-06-10T15:13:13;31.20;1.00
42141;DHT22;27809;51.864;5.646;2023-06-10T15:15:39;31.30;1.00
42141;DHT22;27809;51.864;5.646;2023-06-10T15:18:04;31.40;1.00
42141;DHT22;27809;51.864;5.646;2023-06-10T15:20:30;31.50;1.00
42141;DHT22;27809;51.864;5.646;2023-06-10T15:22:56;31.50;1.00
42141;DHT22;27809;51.864;5.646;2023-06-10T15:25:21;31.50;1.00
42141;DHT22;27809;51.864;5.646;2023-06-10T15:27:47;31.10;1.00
42141;DHT22;27809;51.864;5.646;2023-06-10T15:30:12;31.00;1.00
42141;DHT22;27809;51.864;5.646;2023-06-10T15:32:38;31.40;1.00
42141;DHT22;27809;51.864;5.646;2023-06-10T15:35:04;31.30;1.00
42141;DHT22;27809;51.864;5.646;2023-06-10T15:37:29;31.20;1.00
42141;DHT22;27809;51.864;5.646;2023-06-10T15:39:55;31.10;1.00
42141;DHT22;27809;51.864;5.646;2023-06-10T15:42:20;31.10;1.00
42141;DHT22;27809;51.864;5.646;2023-06-10T15:44:47;31.10;1.00
42141;DHT22;27809;51.864;5.646;2023-06-10T15:47:12;31.20;1.00
42141;DHT22;27809;51.864;5.646;2023-06-10T15:49:38;31.20;1.00
42141;DHT22;27809;51.864;5.646;2023-06-10T15:52:04;31.10;1.00
42141;DHT22;27809;51.864;5.646;2023-06-10T15:54:29;31.10;1.00